SBGL/GIG METAR and TAF weather

Enter ICAO airport designator
Station Type Date Time Source
SBGL METAR 2019/12/08 07:00 UTC NOAA

SBGL 080700Z 34002KT 9999 FEW017 19/17 Q1014


Station Type Date Time Source
SBGL Decoded METAR 2019/12/08 07:00 UTC NOAA

Galeao, Brazil (SBGL) 22-49S 043-15W 42M
Dec 08, 2019 - 02:00 AM EST / 2019.12.08 0700 UTC
Wind: from the NNW (340 degrees) at 2 MPH (2 KT):0
Visibility: greater than 7 mile(s):0
Sky conditions: mostly clear
Temperature: 66 F (19 C)
Dew Point: 62 F (17 C)
Relative Humidity: 88%
Pressure (altimeter): 29.94 in. Hg (1014 hPa)
ob: SBGL 080700Z 34002KT 9999 FEW017 19/17 Q1014
cycle: 7

Station Type Date Time Source
SBGL TAF 2019/12/08 06:16 UTC NOAA

TAF SBGL 080300Z 0806/0912 12005KT CAVOK TN19/0809Z TX29/0818Z
BECMG 0807/0809 30005KT 7000 SCT015 PROB40 0809/0811 05005KT 4000 BR SCT010
BECMG 0812/0814 14010KT CAVOK
BECMG 0821/0823 08010KT
BECMG 0904/0906 02005KT 7000 NSC PROB30 0907/0910 4000 BR SCT010
RMK PGZ

Example: see airport list